Time;durP1;ratioP1;P1;durP2;ratioP2;P2;SDS_P1;SDS_P2;PMS_P1;PMS_P2;Temp;Humidity;BMP_temperature;BMP_pressure;BME280_temperature;BME280_humidity;BME280_pressure;Samples;Min_cycle;Max_cycle;Signal;HPM_P1;HPM_P2
2021/12/26 00:00:15;;;;;;;206.70;82.70;;;;;;;0.78;100.00;98906.91;4943800;29;20412;-87
2021/12/26 00:02:43;;;;;;;235.83;87.30;;;;;;;-0.84;100.00;98623.66;4958852;29;20488;-86
2021/12/26 00:05:09;;;;;;;230.23;89.73;;;;;;;1.25;100.00;98983.50;4943439;29;20412;-87
2021/12/26 00:07:35;;;;;;;219.27;84.87;;;;;;;1.19;100.00;98991.41;4959773;29;20420;-89
2021/12/26 00:10:03;;;;;;;183.70;72.10;;;;;;;-1.24;100.00;98622.28;4962127;29;20487;-88
2021/12/26 00:12:28;;;;;;;174.60;68.43;;;;;;;-2.40;100.00;98405.81;4942757;29;20424;-86
2021/12/26 00:14:53;;;;;;;168.27;65.07;;;;;;;0.25;100.00;98910.41;4943543;29;20471;-88
2021/12/26 00:17:19;;;;;;;164.17;65.23;;;;;;;-2.28;100.00;98431.50;4943188;29;20692;-86
2021/12/26 00:19:44;;;;;;;161.03;64.83;;;;;;;-2.29;100.00;98448.75;4960924;29;20564;-84
2021/12/26 00:22:10;;;;;;;167.90;66.30;;;;;;;-2.38;100.00;98436.50;4960330;28;20181;-87
2021/12/26 00:24:35;;;;;;;182.27;69.33;;;;;;;0.74;100.00;98954.78;4975685;28;20280;-87
2021/12/26 00:27:01;;;;;;;178.13;67.37;;;;;;;0.53;100.00;98944.06;4964418;28;20179;-87
2021/12/26 00:29:27;;;;;;;176.20;63.37;;;;;;;0.20;100.00;98917.53;4963530;28;20204;-88
2021/12/26 00:31:52;;;;;;;207.83;75.03;;;;;;;-0.52;100.00;98735.41;4980275;28;20166;-87
2021/12/26 00:34:18;;;;;;;126.67;51.73;;;;;;;-1.30;100.00;98631.75;4979005;28;20180;-88
2021/12/26 00:36:43;;;;;;;139.37;50.13;;;;;;;-1.12;100.00;98682.78;4962210;28;20180;-88
2021/12/26 00:39:10;;;;;;;147.27;54.53;;;;;;;-1.51;100.00;98575.53;4979529;28;20172;-86
2021/12/26 00:41:39;;;;;;;160.67;64.27;;;;;;;-2.33;100.00;98437.72;4978950;28;20187;-86
2021/12/26 00:44:08;;;;;;;176.37;65.13;;;;;;;-2.09;100.00;98451.16;4978649;28;20435;-87
2021/12/26 00:46:35;;;;;;;164.87;62.27;;;;;;;-0.43;100.00;98731.13;4978739;28;20407;-87
2021/12/26 00:49:03;;;;;;;186.17;64.57;;;;;;;-0.68;100.00;98711.88;4978241;28;20471;-87
2021/12/26 00:51:28;;;;;;;158.30;56.97;;;;;;;-3.02;100.00;98325.03;4977511;28;20411;-86
2021/12/26 00:53:54;;;;;;;157.73;60.70;;;;;;;-3.68;100.00;98183.75;4978391;28;20430;-89
2021/12/26 00:56:19;;;;;;;203.60;69.90;;;;;;;-2.92;100.00;98284.53;4962917;28;20176;-87
2021/12/26 00:58:46;;;;;;;210.60;73.57;;;;;;;-3.31;100.00;98274.91;4980022;28;20168;-86
2021/12/26 01:01:12;;;;;;;177.87;66.00;;;;;;;-1.89;100.00;98495.69;4979016;28;20168;-86
2021/12/26 01:03:37;;;;;;;156.17;61.60;;;;;;;0.28;100.00;98858.34;4979360;28;20473;-87
2021/12/26 01:06:04;;;;;;;209.10;84.33;;;;;;;1.34;100.00;99031.56;4981114;28;20164;-86
2021/12/26 01:08:36;;;;;;;184.10;75.50;;;;;;;1.18;100.00;99007.09;4961381;28;20180;-87
2021/12/26 01:11:17;;;;;;;189.93;74.27;;;;;;;1.55;100.00;99049.69;4977101;28;20482;-87
2021/12/26 01:13:45;;;;;;;189.60;75.40;;;;;;;-1.18;100.00;98559.81;4961391;28;20415;-86
2021/12/26 01:16:12;;;;;;;184.63;69.53;;;;;;;1.47;100.00;99025.81;4961165;28;20990;-86
2021/12/26 01:18:43;;;;;;;184.30;72.03;;;;;;;-0.56;100.00;98689.56;4977699;28;20470;-87
2021/12/26 01:21:19;;;;;;;177.20;69.43;;;;;;;-1.47;100.00;98506.38;4978009;28;20416;-86
2021/12/26 01:23:48;;;;;;;178.63;70.33;;;;;;;-2.50;100.00;98290.28;4980109;28;20408;-86
2021/12/26 01:26:14;;;;;;;167.90;69.53;;;;;;;0.93;100.00;98900.56;4974684;28;20505;-86
2021/12/26 01:28:40;;;;;;;168.57;70.53;;;;;;;-1.38;100.00;98523.56;4977368;28;20483;-86
2021/12/26 01:31:05;;;;;;;170.47;69.43;;;;;;;-2.62;100.00;98318.22;4986864;28;20156;-85
2021/12/26 01:33:31;;;;;;;175.00;69.80;;;;;;;-2.07;100.00;98425.75;4995854;28;20193;-86
2021/12/26 01:35:56;;;;;;;178.80;75.40;;;;;;;1.44;100.00;99023.97;4980751;28;20187;-87
2021/12/26 01:38:24;;;;;;;179.97;73.87;;;;;;;1.29;100.00;98962.16;4985149;28;20168;-88
2021/12/26 01:40:55;;;;;;;168.10;69.17;;;;;;;0.62;100.00;98845.16;4963488;28;20192;-87
2021/12/26 01:43:26;;;;;;;164.27;68.50;;;;;;;-0.88;100.00;98607.66;4979119;28;20408;-88
2021/12/26 01:45:52;;;;;;;170.00;71.33;;;;;;;1.47;100.00;99025.81;4962171;28;20412;-85
2021/12/26 01:48:21;;;;;;;159.33;67.37;;;;;;;-1.85;100.00;98467.91;4978325;28;20434;-85
2021/12/26 01:50:48;;;;;;;166.47;65.53;;;;;;;-0.18;100.00;98734.69;4976204;28;20423;-86
2021/12/26 01:53:14;;;;;;;173.97;70.07;;;;;;;0.05;100.00;98774.56;4959591;28;20416;-86
2021/12/26 01:55:44;;;;;;;162.13;64.83;;;;;;;-2.13;100.00;98393.03;4975969;28;20423;-87
2021/12/26 01:58:13;;;;;;;175.33;72.33;;;;;;;0.36;100.00;98818.34;4975432;28;20415;-88
2021/12/26 02:00:43;;;;;;;153.47;63.43;;;;;;;-1.05;100.00;98548.44;4960444;28;20517;-87
2021/12/26 02:03:09;;;;;;;144.30;58.90;;;;;;;-1.07;100.00;98564.81;4975896;28;20486;-86
2021/12/26 02:05:35;;;;;;;132.47;54.47;;;;;;;1.10;100.00;98943.38;4976109;28;20423;-87
2021/12/26 02:08:00;;;;;;;137.23;55.73;;;;;;;1.19;100.00;98985.53;4981487;28;20188;-87
2021/12/26 02:10:26;;;;;;;140.23;54.20;;;;;;;1.19;100.00;98993.03;4969102;28;20474;-87
2021/12/26 02:12:52;;;;;;;131.63;53.53;;;;;;;0.68;100.00;98927.78;4958925;29;20444;-87
2021/12/26 02:15:17;;;;;;;128.60;53.33;;;;;;;-1.32;100.00;98586.94;4956379;29;20176;-87
2021/12/26 02:17:43;;;;;;;131.80;49.63;;;;;;;0.41;100.00;98871.81;4956761;29;20556;-87
2021/12/26 02:23:06;;;;;;;142.25;54.85;;;;;;;0.40;100.00;98852.69;4956044;29;20243;-88
2021/12/26 02:27:31;;;;;;;137.60;55.90;;;;;;;-1.20;100.00;98582.91;4957904;29;20175;-87
2021/12/26 02:28:18;;;;;;;144.47;55.80;;;;;;;-0.26;100.00;98790.44;4958850;29;20423;-89
2021/12/26 02:30:45;;;;;;;137.87;54.90;;;;;;;1.23;100.00;99012.44;4956429;29;20412;-87
2021/12/26 02:33:12;;;;;;;139.60;56.13;;;;;;;1.07;100.00;98965.56;4957193;29;20409;-85
2021/12/26 02:35:41;;;;;;;136.07;53.00;;;;;;;-1.09;100.00;98611.03;4958743;29;20435;-86
2021/12/26 02:38:08;;;;;;;176.73;64.90;;;;;;;-1.58;100.00;98539.44;4959115;28;20408;-86
2021/12/26 02:40:34;;;;;;;161.55;61.83;;;;;;;1.19;100.00;99017.94;4966491;29;20405;-85
2021/12/26 02:43:00;;;;;;;200.67;75.43;;;;;;;-1.50;100.00;98549.94;4965085;29;20178;-86
2021/12/26 02:45:25;;;;;;;204.03;78.13;;;;;;;-0.29;100.00;98767.81;4961186;29;20168;-86
2021/12/26 02:47:52;;;;;;;229.47;86.30;;;;;;;0.73;100.00;98903.22;4960881;29;20648;-87
2021/12/26 02:50:28;;;;;;;253.33;96.83;;;;;;;-1.55;100.00;98490.06;4961516;29;20189;-87
2021/12/26 02:52:57;;;;;;;221.03;86.07;;;;;;;-0.38;100.00;98709.94;4959904;29;20419;-87
2021/12/26 02:55:23;;;;;;;224.43;87.73;;;;;;;0.59;100.00;98865.72;4962161;29;20435;-87
2021/12/26 02:57:51;;;;;;;290.33;112.70;;;;;;;-1.26;100.00;98542.72;4963009;29;20450;-86
2021/12/26 03:00:22;;;;;;;220.57;83.33;;;;;;;-2.51;100.00;98347.13;4963407;29;20455;-86
2021/12/26 03:02:52;;;;;;;265.90;98.63;;;;;;;-1.91;100.00;98431.09;4962509;29;20488;-87
2021/12/26 03:05:19;;;;;;;284.93;105.47;;;;;;;0.01;100.00;98775.06;4961782;29;20448;-86
2021/12/26 03:07:46;;;;;;;271.63;105.80;;;;;;;-1.26;100.00;98534.41;4962008;29;20535;-86
2021/12/26 03:10:21;;;;;;;300.97;116.53;;;;;;;-2.52;100.00;98295.84;4960450;29;20531;-86
2021/12/26 03:12:48;;;;;;;350.40;130.50;;;;;;;1.56;100.00;99042.31;4964558;29;20495;-87
2021/12/26 03:15:13;;;;;;;288.27;111.97;;;;;;;-2.07;100.00;98391.03;4962585;29;20475;-87
2021/12/26 03:17:39;;;;;;;291.33;111.73;;;;;;;1.43;100.00;98949.06;4964033;29;20396;-87
2021/12/26 03:20:10;;;;;;;218.77;85.60;;;;;;;-3.01;100.00;98230.25;4963867;29;20176;-88
2021/12/26 03:22:36;;;;;;;250.83;96.07;;;;;;;-2.32;100.00;98347.78;4961146;29;20173;-88
2021/12/26 03:25:05;;;;;;;259.47;99.87;;;;;;;-0.34;100.00;98720.25;4964741;29;20459;-85
2021/12/26 03:27:31;;;;;;;251.07;97.73;;;;;;;-1.56;100.00;98522.19;4972301;29;20528;-87
2021/12/26 03:29:56;;;;;;;308.90;116.17;;;;;;;1.07;100.00;98945.63;4962637;29;20470;-86
2021/12/26 03:32:23;;;;;;;307.77;118.50;;;;;;;1.24;100.00;98976.75;4962689;29;20196;-85
2021/12/26 03:34:51;;;;;;;302.10;116.03;;;;;;;-0.16;100.00;98730.69;4962360;29;20180;-86
2021/12/26 03:37:19;;;;;;;300.70;116.17;;;;;;;-2.62;100.00;98293.44;4962225;29;20435;-87
2021/12/26 03:39:44;;;;;;;314.67;113.70;;;;;;;1.20;100.00;98962.38;4960532;29;20475;-88
2021/12/26 03:42:10;;;;;;;319.77;124.10;;;;;;;1.21;100.00;98945.78;4960838;29;20448;-88
2021/12/26 03:44:37;;;;;;;363.70;145.77;;;;;;;1.40;100.00;98979.59;4960113;29;20581;-86
2021/12/26 03:47:04;;;;;;;382.53;150.83;;;;;;;-0.06;100.00;98803.63;4959911;29;20196;-86
2021/12/26 03:49:30;;;;;;;364.10;145.20;;;;;;;-1.58;100.00;98492.31;4959683;28;20536;-88
2021/12/26 03:51:56;;;;;;;324.30;127.43;;;;;;;0.31;100.00;98842.03;4960186;29;20456;-87
2021/12/26 03:54:21;;;;;;;358.63;134.70;;;;;;;-3.58;100.00;98225.75;4961417;29;20169;-87
2021/12/26 03:56:47;;;;;;;309.23;121.23;;;;;;;-3.71;100.00;98174.47;4959347;29;20185;-87
2021/12/26 03:59:12;;;;;;;328.47;131.17;;;;;;;-3.55;100.00;98176.53;4960155;29;20165;-87
2021/12/26 04:01:38;;;;;;;455.93;202.47;;;;;;;-2.45;100.00;98384.78;4959626;29;20228;-87
2021/12/26 04:04:04;;;;;;;440.33;189.30;;;;;;;1.22;100.00;99002.34;4959047;29;20175;-88
2021/12/26 04:06:30;;;;;;;403.10;170.83;;;;;;;-1.32;100.00;98598.50;4960149;29;20176;-88
2021/12/26 04:08:56;;;;;;;385.87;158.10;;;;;;;-2.66;100.00;98358.31;4959189;29;20452;-87
2021/12/26 04:11:22;;;;;;;449.67;192.33;;;;;;;-0.13;100.00;98783.13;4960378;29;20423;-85
2021/12/26 04:13:48;;;;;;;492.73;216.87;;;;;;;-1.17;100.00;98628.56;4959173;29;20185;-88
2021/12/26 04:16:13;;;;;;;445.43;193.57;;;;;;;-2.56;100.00;98393.00;4959910;29;20499;-88
2021/12/26 04:18:42;;;;;;;430.90;180.60;;;;;;;-3.36;100.00;98251.41;4963244;29;20165;-88
2021/12/26 04:21:07;;;;;;;431.33;181.23;;;;;;;-3.26;100.00;98328.06;4961035;29;20263;-87
2021/12/26 04:23:34;;;;;;;426.10;175.67;;;;;;;0.49;100.00;98932.16;4961713;29;20223;-87
2021/12/26 04:26:00;;;;;;;479.30;224.88;;;;;;;-1.30;100.00;98636.72;4960344;29;20205;-85
2021/12/26 04:28:26;;;;;;;529.37;253.17;;;;;;;-0.30;100.00;98811.72;4959414;29;20172;-87
2021/12/26 04:30:53;;;;;;;540.30;281.13;;;;;;;0.80;100.00;99017.47;4960735;29;20180;-85
2021/12/26 04:33:20;;;;;;;469.58;227.18;;;;;;;0.89;100.00;99034.00;4958768;29;20188;-87
2021/12/26 04:35:45;;;;;;;450.17;201.80;;;;;;;-3.83;100.00;98219.59;4959016;29;20173;-88
2021/12/26 04:38:11;;;;;;;433.50;192.50;;;;;;;-0.49;100.00;98756.38;4960155;29;20169;-88
2021/12/26 04:40:36;;;;;;;329.33;131.17;;;;;;;0.75;100.00;98992.22;4960254;29;20204;-86
2021/12/26 04:43:02;;;;;;;299.57;111.80;;;;;;;-3.44;100.00;98264.78;4959849;29;20175;-88
2021/12/26 04:45:27;;;;;;;224.50;86.27;;;;;;;-1.42;100.00;98651.53;4961757;29;20169;-85
2021/12/26 04:47:53;;;;;;;233.23;91.93;;;;;;;-0.72;100.00;98764.59;4963529;29;20236;-87
2021/12/26 04:50:22;;;;;;;270.43;110.20;;;;;;;-1.24;100.00;98692.63;4967039;29;20205;-86
2021/12/26 04:52:49;;;;;;;192.15;77.15;;;;;;;-1.36;100.00;98649.53;4978275;29;20213;-84
2021/12/26 04:55:17;;;;;;;208.30;81.90;;;;;;;-3.48;100.00;98294.09;4975944;29;20244;-87
2021/12/26 04:57:42;;;;;;;209.53;79.23;;;;;;;-3.55;100.00;98235.88;4972025;28;20608;-87
2021/12/26 05:00:13;;;;;;;185.23;67.53;;;;;;;-2.87;100.00;98374.00;4962454;29;20519;-85
2021/12/26 05:02:39;;;;;;;183.88;76.18;;;;;;;-0.07;100.00;98830.84;4958422;28;20291;-87
2021/12/26 05:05:07;;;;;;;181.90;70.63;;;;;;;-0.56;100.00;98760.78;4961302;29;20176;-87
2021/12/26 05:07:33;;;;;;;186.85;76.47;;;;;;;-1.82;100.00;98558.28;4959370;29;20219;-86
2021/12/26 05:09:59;;;;;;;196.38;76.70;;;;;;;-2.24;100.00;98435.97;4959646;29;20280;-87
2021/12/26 05:12:24;;;;;;;199.60;71.50;;;;;;;-0.31;100.00;98791.72;4962750;29;20612;-87
2021/12/26 05:14:51;;;;;;;203.80;85.37;;;;;;;0.92;100.00;98986.00;4977377;28;20164;-83
2021/12/26 05:17:16;;;;;;;189.40;74.70;;;;;;;-0.58;100.00;98739.91;4966817;28;20277;-87
2021/12/26 05:19:42;;;;;;;180.13;71.50;;;;;;;-2.49;100.00;98417.47;4959696;29;20929;-87
2021/12/26 05:22:07;;;;;;;189.27;77.73;;;;;;;-0.05;100.00;98805.34;4959635;29;20179;-86
2021/12/26 05:24:33;;;;;;;200.20;79.97;;;;;;;1.43;100.00;99009.75;4959143;29;20220;-88
2021/12/26 05:26:59;;;;;;;231.53;92.23;;;;;;;0.10;100.00;98808.13;4973669;29;20184;-85
2021/12/26 05:29:24;;;;;;;208.93;86.97;;;;;;;0.52;100.00;98866.00;4960580;29;20207;-87
2021/12/26 05:31:50;;;;;;;314.23;120.07;;;;;;;-2.84;100.00;98277.69;4959223;29;20168;-90
2021/12/26 05:34:15;;;;;;;213.67;84.83;;;;;;;-3.13;100.00;98265.56;4958913;29;20677;-88
2021/12/26 05:36:42;;;;;;;174.93;71.70;;;;;;;-0.06;100.00;98776.28;4959189;29;20173;-87
2021/12/26 05:39:07;;;;;;;163.50;67.60;;;;;;;-2.89;100.00;98276.47;4958465;29;20169;-88
2021/12/26 05:41:33;;;;;;;171.20;67.57;;;;;;;-1.82;100.00;98490.44;4960057;29;20511;-87
2021/12/26 05:43:59;;;;;;;205.30;83.37;;;;;;;1.36;100.00;99027.53;4958737;29;20212;-87
2021/12/26 05:46:25;;;;;;;346.50;141.77;;;;;;;-2.33;100.00;98427.81;4960490;29;20168;-88
2021/12/26 05:48:51;;;;;;;477.03;233.17;;;;;;;-0.16;100.00;98746.47;4958649;29;20488;-89
2021/12/26 05:51:16;;;;;;;454.23;195.50;;;;;;;-1.71;100.00;98498.69;4957111;29;20177;-87
2021/12/26 05:53:42;;;;;;;368.93;148.87;;;;;;;-1.62;100.00;98537.47;4961053;29;20172;-85
2021/12/26 05:56:07;;;;;;;338.63;141.23;;;;;;;-2.22;100.00;98389.84;4964144;29;20178;-86
2021/12/26 05:58:33;;;;;;;351.60;139.80;;;;;;;0.14;100.00;98771.91;4962770;29;20180;-88
2021/12/26 06:00:59;;;;;;;409.53;178.50;;;;;;;0.25;100.00;98834.13;4943060;29;20267;-87
2021/12/26 06:03:25;;;;;;;293.73;117.97;;;;;;;-1.32;100.00;98626.66;4965275;28;20187;-86
2021/12/26 06:05:51;;;;;;;394.80;148.13;;;;;;;0.44;100.00;98866.22;4982803;28;20443;-87
2021/12/26 06:08:17;;;;;;;406.23;160.87;;;;;;;-1.43;100.00;98576.97;4980333;28;20258;-87
2021/12/26 06:10:43;;;;;;;283.13;114.23;;;;;;;-1.47;100.00;98535.28;4976996;28;20474;-87
2021/12/26 06:13:09;;;;;;;233.60;95.13;;;;;;;-1.67;100.00;98526.31;4978171;28;20400;-88
2021/12/26 06:15:35;;;;;;;273.60;115.33;;;;;;;-0.77;100.00;98696.28;4979165;28;20411;-87
2021/12/26 06:18:00;;;;;;;262.87;105.47;;;;;;;-0.65;100.00;98672.34;4961746;28;20172;-88
2021/12/26 06:20:26;;;;;;;578.73;230.47;;;;;;;1.26;100.00;99002.69;4959430;28;20699;-87
2021/12/26 06:22:51;;;;;;;411.30;149.77;;;;;;;-1.27;100.00;98577.38;4961817;28;20188;-89
2021/12/26 06:25:17;;;;;;;461.23;189.17;;;;;;;1.60;100.00;99054.25;4958795;29;20188;-86
2021/12/26 06:27:43;;;;;;;401.47;160.27;;;;;;;1.80;100.00;99055.69;4942510;29;20172;-87
2021/12/26 06:30:09;;;;;;;264.73;104.80;;;;;;;-0.20;100.00;98752.00;4958768;29;20585;-88
2021/12/26 06:32:35;;;;;;;164.57;57.43;;;;;;;-0.47;100.00;98729.16;4942744;29;20216;-88
2021/12/26 06:35:01;;;;;;;159.97;65.27;;;;;;;1.57;100.00;99066.50;4958633;29;20448;-86
2021/12/26 06:37:30;;;;;;;159.50;64.90;;;;;;;-2.69;100.00;98318.50;4967650;28;20219;-87
2021/12/26 06:39:56;;;;;;;174.93;64.40;;;;;;;-1.18;100.00;98597.06;4947292;28;20412;-89
2021/12/26 06:42:22;;;;;;;140.57;58.37;;;;;;;-2.59;100.00;98368.84;4967915;28;20427;-88
2021/12/26 06:44:49;;;;;;;93.47;35.60;;;;;;;-1.45;100.00;98556.09;4959788;29;20409;-87
2021/12/26 06:47:15;;;;;;;127.40;51.00;;;;;;;1.39;100.00;99045.22;4947341;29;20177;-87
2021/12/26 06:49:43;;;;;;;142.97;57.07;;;;;;;1.71;100.00;99057.50;4925451;29;20479;-86
2021/12/26 06:52:08;;;;;;;128.13;49.87;;;;;;;-0.89;100.00;98655.63;4958898;29;20176;-88
2021/12/26 06:54:34;;;;;;;166.00;62.83;;;;;;;-1.70;100.00;98536.00;4941338;29;20495;-88
2021/12/26 06:56:59;;;;;;;205.50;79.40;;;;;;;-1.51;100.00;98652.44;4957932;29;20214;-88
2021/12/26 06:59:25;;;;;;;256.17;106.90;;;;;;;-3.12;100.00;98301.94;4945579;29;20179;-89
2021/12/26 07:01:51;;;;;;;329.20;140.13;;;;;;;-0.97;100.00;98656.66;4967585;28;20255;-88
2021/12/26 07:04:16;;;;;;;302.43;133.23;;;;;;;-2.03;100.00;98425.19;4974449;28;20177;-89
2021/12/26 07:06:42;;;;;;;336.40;147.83;;;;;;;-1.09;100.00;98566.31;4975742;28;20179;-89
2021/12/26 07:09:08;;;;;;;278.10;121.13;;;;;;;-1.81;100.00;98408.72;4974380;28;20585;-89
2021/12/26 07:11:33;;;;;;;373.60;171.23;;;;;;;0.76;100.00;98853.63;4969812;28;20184;-88
2021/12/26 07:13:59;;;;;;;283.77;121.47;;;;;;;-1.18;100.00;98496.13;4975009;28;20191;-89
2021/12/26 07:16:25;;;;;;;370.60;151.43;;;;;;;0.77;100.00;98821.34;4949054;29;20256;-88
2021/12/26 07:18:50;;;;;;;415.30;187.37;;;;;;;1.59;100.00;98957.72;4946757;28;20180;-86
2021/12/26 07:21:17;;;;;;;292.33;126.93;;;;;;;0.23;100.00;98758.47;4952517;29;20440;-86
2021/12/26 07:23:43;;;;;;;208.57;86.93;;;;;;;0.14;100.00;98816.69;4945530;29;20169;-86
2021/12/26 07:26:09;;;;;;;192.83;77.43;;;;;;;-1.86;100.00;98459.59;4967603;28;20412;-85
2021/12/26 07:28:34;;;;;;;176.70;71.70;;;;;;;-2.91;100.00;98258.19;4951977;28;20169;-87
2021/12/26 07:31:00;;;;;;;182.30;73.07;;;;;;;0.13;100.00;98728.72;4982674;28;20179;-85
2021/12/26 07:33:25;;;;;;;228.13;109.43;;;;;;;-1.51;100.00;98486.19;4960193;28;20181;-87
2021/12/26 07:35:51;;;;;;;158.77;69.27;;;;;;;2.30;100.00;99072.63;4965646;28;20163;-88
2021/12/26 07:38:18;;;;;;;172.93;70.20;;;;;;;-1.14;100.00;98483.19;4986217;28;20183;-88
2021/12/26 07:40:45;;;;;;;149.87;60.97;;;;;;;0.39;100.00;98773.78;4970727;28;20165;-89
2021/12/26 07:43:11;;;;;;;142.27;59.83;;;;;;;2.09;100.00;99063.59;4971040;28;20416;-88
2021/12/26 07:45:37;;;;;;;222.87;84.50;;;;;;;0.83;100.00;98843.34;4953790;28;20435;-85
2021/12/26 07:48:04;;;;;;;174.03;65.70;;;;;;;-0.52;100.00;98618.59;4968818;28;20416;-88
2021/12/26 07:50:31;;;;;;;131.57;55.70;;;;;;;1.01;100.00;98853.00;4969949;28;20747;-86
2021/12/26 07:53:03;;;;;;;119.07;50.00;;;;;;;-0.36;100.00;98607.41;4972812;28;20504;-88
2021/12/26 07:55:28;;;;;;;144.67;58.47;;;;;;;-1.79;100.00;98414.63;4955673;28;20945;-88
2021/12/26 07:57:54;;;;;;;137.03;57.87;;;;;;;-0.03;100.00;98676.97;4985652;28;20510;-88
2021/12/26 08:00:20;;;;;;;112.60;47.17;;;;;;;1.09;100.00;98856.03;4949828;29;20172;-89
2021/12/26 08:02:46;;;;;;;119.13;51.07;;;;;;;2.90;100.00;99125.09;4938888;29;20593;-87
2021/12/26 08:05:12;;;;;;;147.63;61.67;;;;;;;3.12;100.00;99089.91;4940762;29;20201;-87
2021/12/26 08:07:38;;;;;;;175.87;79.57;;;;;;;3.25;100.00;99094.97;4941870;29;20414;-82
2021/12/26 08:10:04;;;;;;;198.30;86.17;;;;;;;1.82;100.00;98833.72;4945072;29;20465;-88
2021/12/26 08:12:30;;;;;;;173.63;81.53;;;;;;;2.98;100.00;99002.34;4953115;29;20197;-85
2021/12/26 08:14:55;;;;;;;202.03;86.83;;;;;;;0.75;100.00;98590.38;4953517;29;20409;-87
2021/12/26 08:17:21;;;;;;;209.33;94.43;;;;;;;1.32;100.00;98706.44;4943770;29;20166;-87
2021/12/26 08:19:46;;;;;;;196.80;90.93;;;;;;;1.32;100.00;98668.22;4941408;29;20165;-89
2021/12/26 08:22:12;;;;;;;158.00;72.97;;;;;;;0.19;100.00;98509.34;4941151;29;20193;-90
2021/12/26 08:24:37;;;;;;;168.93;77.23;;;;;;;0.56;100.00;98539.31;4933615;29;20276;-88
2021/12/26 08:27:03;;;;;;;189.87;89.53;;;;;;;1.31;100.00;98637.44;4940067;29;20174;-86
2021/12/26 08:29:28;;;;;;;162.97;73.60;;;;;;;1.71;100.00;98675.81;4938965;29;20216;-90
2021/12/26 08:31:58;;;;;;;144.43;68.10;;;;;;;0.27;100.00;98424.50;4941465;29;20189;-87
2021/12/26 08:34:23;;;;;;;158.20;74.17;;;;;;;2.53;100.00;98789.41;4942321;29;20178;-90
2021/12/26 08:37:00;;;;;;;163.30;71.70;;;;;;;1.59;100.00;98611.03;4936810;29;20428;-86
2021/12/26 08:39:29;;;;;;;190.37;87.07;;;;;;;2.05;100.00;98643.97;4937323;29;20172;-85
2021/12/26 08:41:55;;;;;;;305.10;123.00;;;;;;;2.15;99.24;98653.75;4936752;29;20459;-86
2021/12/26 08:44:21;;;;;;;314.17;126.37;;;;;;;1.03;98.33;98462.78;4938205;29;20449;-86
2021/12/26 08:46:47;;;;;;;371.47;166.53;;;;;;;1.32;98.46;98487.06;4937814;29;20205;-88
2021/12/26 08:49:14;;;;;;;409.90;200.27;;;;;;;3.02;98.95;98817.56;4936524;29;20559;-86
2021/12/26 08:51:40;;;;;;;335.70;146.57;;;;;;;0.56;100.00;98451.31;4936943;29;20181;-88
2021/12/26 08:54:07;;;;;;;244.97;110.00;;;;;;;1.67;100.00;98611.56;4937262;29;20813;-89
2021/12/26 08:56:34;;;;;;;209.80;95.70;;;;;;;0.25;100.00;98396.13;4936330;29;20432;-89
2021/12/26 08:59:00;;;;;;;157.90;67.50;;;;;;;4.32;100.00;99081.09;4942176;29;20417;-87
2021/12/26 09:01:25;;;;;;;156.07;74.47;;;;;;;2.56;100.00;98809.59;4952166;28;20468;-89
2021/12/26 09:03:51;;;;;;;207.73;90.83;;;;;;;3.45;100.00;98977.06;4990001;28;20182;-89
2021/12/26 09:06:19;;;;;;;92.13;42.73;;;;;;;-0.34;100.00;98371.34;4974312;28;20208;-87
2021/12/26 09:08:45;;;;;;;97.77;46.87;;;;;;;1.48;100.00;98683.44;4977314;28;20171;-88
2021/12/26 09:11:10;;;;;;;119.97;55.10;;;;;;;-0.59;100.00;98309.13;4974436;28;20412;-88
2021/12/26 09:13:36;;;;;;;114.70;50.10;;;;;;;2.34;100.00;98794.88;4960135;28;20175;-89
2021/12/26 09:16:03;;;;;;;138.83;58.70;;;;;;;0.12;100.00;98406.03;4987313;28;20176;-87
2021/12/26 09:18:29;;;;;;;138.43;57.13;;;;;;;0.29;100.00;98432.91;4958541;28;20184;-87
2021/12/26 09:20:57;;;;;;;133.40;58.07;;;;;;;2.31;100.00;98718.88;4988707;28;20837;-90
2021/12/26 09:23:23;;;;;;;90.67;42.03;;;;;;;3.08;100.00;98777.97;4956736;28;20179;-89
2021/12/26 09:25:48;;;;;;;86.53;42.33;;;;;;;4.93;99.53;99110.81;4945796;28;20428;-88
2021/12/26 09:28:14;;;;;;;111.50;54.47;;;;;;;2.80;98.41;98656.25;4975878;28;20184;-88
2021/12/26 09:30:41;;;;;;;94.47;44.50;;;;;;;2.24;96.48;98530.38;4957318;28;20254;-88
2021/12/26 09:33:06;;;;;;;84.43;40.80;;;;;;;3.57;95.94;98748.50;4958057;28;20184;-90
2021/12/26 09:35:32;;;;;;;57.50;29.67;;;;;;;4.33;95.47;98844.81;4955923;28;20428;-88
2021/12/26 09:37:58;;;;;;;54.87;30.17;;;;;;;4.18;94.03;98740.47;4975128;28;20640;-89
2021/12/26 09:40:23;;;;;;;62.67;31.77;;;;;;;6.36;92.77;99073.16;4956652;28;20176;-88
2021/12/26 09:42:49;;;;;;;88.87;48.20;;;;;;;3.49;91.20;98569.56;4981549;28;20431;-88
2021/12/26 09:45:18;;;;;;;75.03;38.23;;;;;;;4.18;90.59;98635.25;4981703;28;20232;-88
2021/12/26 09:47:49;;;;;;;74.23;38.97;;;;;;;3.28;88.38;98439.91;4963862;28;20192;-88
2021/12/26 09:50:16;;;;;;;104.67;52.97;;;;;;;4.69;87.58;98694.94;4981969;28;21017;-89
2021/12/26 09:52:43;;;;;;;155.73;82.37;;;;;;;4.61;87.91;98651.03;4965975;28;20411;-90
2021/12/26 09:55:10;;;;;;;144.03;74.00;;;;;;;3.08;88.04;98410.44;4969270;28;20428;-88
2021/12/26 09:57:36;;;;;;;169.53;87.70;;;;;;;4.61;88.34;98661.06;4995898;28;20415;-88
2021/12/26 10:00:30;;;;;;;161.47;86.00;;;;;;;3.16;87.57;98394.25;4980977;28;20450;-89
2021/12/26 10:03:16;;;;;;;153.83;77.87;;;;;;;7.01;86.58;99009.59;4985332;28;20235;-88
2021/12/26 10:05:55;;;;;;;105.83;55.50;;;;;;;4.94;86.77;98698.75;4986216;28;20479;-87
2021/12/26 10:08:21;;;;;;;109.17;52.70;;;;;;;6.56;87.40;98958.56;4972821;28;20415;-89
2021/12/26 10:11:14;;;;;;;90.80;47.30;;;;;;;7.20;86.29;99023.13;4993123;28;20594;-90
2021/12/26 10:13:45;;;;;;;86.63;46.00;;;;;;;7.28;86.17;99021.84;4986419;28;20171;-90
2021/12/26 10:16:14;;;;;;;79.30;42.40;;;;;;;6.87;85.24;98967.75;4983207;28;20416;-90
2021/12/26 10:18:41;;;;;;;75.70;40.33;;;;;;;7.02;85.06;99008.81;4980994;28;20498;-90
2021/12/26 10:21:49;;;;;;;72.07;39.83;;;;;;;7.00;84.97;98975.13;4981278;28;20490;-89
2021/12/26 10:24:21;;;;;;;71.70;37.70;;;;;;;5.46;84.28;98735.00;4930365;29;20453;-90
2021/12/26 10:26:56;;;;;;;63.27;34.83;;;;;;;3.87;84.82;98488.28;4946604;29;20413;-90
2021/12/26 10:29:23;;;;;;;58.13;32.33;;;;;;;7.24;85.66;99025.00;4966045;28;20462;-91
2021/12/26 10:32:02;;;;;;;63.07;34.80;;;;;;;5.34;84.92;98711.00;4964432;28;20443;-89
2021/12/26 10:34:32;;;;;;;56.83;31.63;;;;;;;5.79;85.15;98766.91;4966711;28;20419;-89
2021/12/26 10:37:00;;;;;;;53.30;30.27;;;;;;;7.45;84.94;99010.94;4981547;28;20411;-90
2021/12/26 10:39:29;;;;;;;58.03;30.33;;;;;;;5.29;85.16;98657.19;4956785;28;20519;-89
2021/12/26 10:41:59;;;;;;;54.10;30.23;;;;;;;3.92;83.98;98419.28;4966082;28;20211;-89
2021/12/26 10:44:38;;;;;;;56.57;30.17;;;;;;;4.26;84.72;98474.53;4967732;28;20180;-89
2021/12/26 10:47:08;;;;;;;54.17;29.93;;;;;;;5.32;85.12;98666.53;4955168;28;20186;-90
2021/12/26 10:49:36;;;;;;;62.50;33.23;;;;;;;5.53;84.54;98727.88;4954123;28;20459;-90
2021/12/26 10:52:21;;;;;;;83.80;39.83;;;;;;;3.70;84.40;98419.78;4974376;28;20446;-91
2021/12/26 10:54:56;;;;;;;73.03;36.57;;;;;;;5.44;84.77;98697.25;4985770;28;20905;-90
2021/12/26 10:57:31;;;;;;;101.97;48.53;;;;;;;6.86;84.69;98930.81;4952810;28;20447;-90
2021/12/26 11:00:11;;;;;;;114.47;53.10;;;;;;;6.07;85.59;98805.22;4956798;28;20399;-89
2021/12/26 11:02:40;;;;;;;115.57;55.53;;;;;;;7.36;85.60;99050.78;4973795;28;21015;-90
2021/12/26 11:05:12;;;;;;;110.17;54.00;;;;;;;3.82;83.88;98389.56;4973812;28;20412;-91
2021/12/26 11:07:52;;;;;;;106.77;53.13;;;;;;;7.65;84.14;99046.41;4989609;28;20183;-90
2021/12/26 11:10:22;;;;;;;107.87;52.23;;;;;;;4.31;83.22;98400.50;4957645;28;20468;-91